Time;durP1;ratioP1;P1;durP2;ratioP2;P2;SDS_P1;SDS_P2;PMS_P1;PMS_P2;Temp;Humidity;BMP_temperature;BMP_pressure;BME280_temperature;BME280_humidity;BME280_pressure;Samples;Min_cycle;Max_cycle;Signal;HPM_P1;HPM_P2
2021/12/16 00:01:49;;;;;;;43.55;29.10;;;;;;;3.48;76.85;101002.47;5073739;28;20060;-20
2021/12/16 00:09:25;;;;;;;30.50;18.27;;;;;;;3.81;74.20;101008.06;5089449;28;20036;-20
2021/12/16 00:35:47;;;;;;;26.35;15.63;;;;;;;3.99;72.72;101005.41;5088553;28;20044;-20
2021/12/16 00:38:12;;;;;;;28.83;16.45;;;;;;;4.31;72.14;101031.22;5088749;28;20032;-21
2021/12/16 00:40:40;;;;;;;25.85;15.18;;;;;;;3.86;72.70;101032.16;5070492;28;20093;-20
2021/12/16 00:43:15;;;;;;;27.50;15.23;;;;;;;3.48;72.99;100986.66;5070805;28;20123;-20
2021/12/16 00:45:46;;;;;;;27.35;15.40;;;;;;;3.43;74.18;101017.91;5088724;28;20101;-20
2021/12/16 00:55:54;;;;;;;24.88;13.65;;;;;;;3.27;73.68;101017.72;5088497;28;20039;-21
2021/12/16 00:58:22;;;;;;;;;;;;;;;3.13;73.96;101022.53;5088769;28;20043;-20
2021/12/16 01:00:58;;;;;;;;;;;;;;;3.13;74.21;101027.78;5088680;28;19966;-20
2021/12/16 01:03:31;;;;;;;27.40;14.75;;;;;;;3.18;74.28;101017.63;5071450;28;19923;-20
2021/12/16 01:47:16;;;;;;;27.67;16.90;;;;;;;2.78;74.91;100983.72;5087807;28;20608;-20
2021/12/16 01:57:22;;;;;;;28.63;16.02;;;;;;;2.40;75.81;100973.19;5087784;28;20050;-20
2021/12/16 01:59:56;;;;;;;29.52;15.43;;;;;;;2.23;76.69;100979.19;5087364;28;20032;-20
2021/12/16 02:10:28;;;;;;;28.10;15.23;;;;;;;2.29;77.38;100981.25;5091624;28;20031;-20
2021/12/16 02:13:16;;;;;;;27.35;14.27;;;;;;;2.25;77.13;100982.50;5091678;28;20028;-20
2021/12/16 02:29:43;;;;;;;31.08;16.60;;;;;;;2.14;78.07;100998.44;5091104;28;20580;-20
2021/12/16 02:32:27;;;;;;;31.30;16.52;;;;;;;2.14;77.97;100956.34;5090978;28;20465;-20
2021/12/16 02:37:36;;;;;;;35.72;17.30;;;;;;;2.41;76.48;100974.84;5090789;28;20031;-21
2021/12/16 02:40:04;;;;;;;31.40;16.73;;;;;;;2.67;76.51;100971.56;5091122;28;20027;-20
2021/12/16 02:42:34;;;;;;;30.65;15.85;;;;;;;2.80;76.41;100989.69;5090980;28;20640;-20
2021/12/16 02:50:20;;;;;;;27.00;16.08;;;;;;;2.71;76.44;100978.19;5091084;28;20051;-20
2021/12/16 02:52:45;;;;;;;31.77;16.75;;;;;;;2.66;76.13;100975.19;5072620;28;20468;-21
2021/12/16 02:55:11;;;;;;;30.77;16.90;;;;;;;2.78;74.99;100979.28;5090984;28;20047;-20
2021/12/16 02:57:45;;;;;;;34.95;17.02;;;;;;;2.64;75.45;100982.41;5090681;28;20070;-21
2021/12/16 03:00:13;;;;;;;29.33;15.45;;;;;;;2.91;74.94;100997.38;5090761;28;20093;-20
2021/12/16 03:02:39;;;;;;;31.15;17.02;;;;;;;2.87;75.18;100989.91;5090615;28;20119;-21
2021/12/16 03:05:04;;;;;;;33.08;17.08;;;;;;;3.07;74.69;100973.03;5090662;28;20047;-20
2021/12/16 03:07:30;;;;;;;30.75;17.58;;;;;;;3.19;74.04;100990.31;5090395;28;20448;-20
2021/12/16 03:14:58;;;;;;;28.65;16.00;;;;;;;3.07;73.86;100994.13;5090532;28;20092;-21
2021/12/16 03:17:39;;;;;;;32.22;16.90;;;;;;;3.10;73.18;100988.53;5090407;28;20016;-20
2021/12/16 03:20:19;;;;;;;30.25;16.17;;;;;;;3.07;72.30;100983.56;5090066;28;20110;-20
2021/12/16 03:25:49;;;;;;;30.33;16.08;;;;;;;3.10;72.71;101003.53;5089820;28;20050;-20
2021/12/16 03:28:38;;;;;;;35.38;17.42;;;;;;;2.98;72.95;101011.66;5089569;28;20056;-20
2021/12/16 03:38:29;;;;;;;32.28;16.25;;;;;;;2.78;74.27;101000.34;5089729;28;20028;-20
2021/12/16 03:40:54;;;;;;;31.85;15.23;;;;;;;2.76;74.18;101009.38;5089835;28;20096;-20
2021/12/16 03:43:20;;;;;;;32.42;16.38;;;;;;;2.68;74.49;101009.28;5055405;28;20028;-20
2021/12/16 03:48:55;;;;;;;28.77;15.88;;;;;;;2.58;74.70;101009.31;5089888;28;20495;-21
2021/12/16 03:51:32;;;;;;;34.78;17.15;;;;;;;2.20;76.39;100995.25;5089758;28;20438;-20
2021/12/16 03:54:12;;;;;;;33.10;17.75;;;;;;;2.45;75.71;100990.34;5090049;28;20032;-20
2021/12/16 03:56:38;;;;;;;32.75;17.38;;;;;;;2.38;76.19;101006.72;5089573;28;20092;-20
2021/12/16 03:59:04;;;;;;;35.88;18.98;;;;;;;2.46;76.00;101007.81;5089728;28;20024;-20
2021/12/16 04:01:30;;;;;;;37.03;19.83;;;;;;;2.42;75.39;100989.66;5089122;28;20063;-21
2021/12/16 04:03:55;;;;;;;43.30;23.75;;;;;;;2.65;73.97;100991.94;5089345;28;20024;-20
2021/12/16 04:06:22;;;;;;;50.50;23.75;;;;;;;2.90;73.96;101014.19;5089197;28;20387;-20
2021/12/16 04:08:47;;;;;;;49.63;23.73;;;;;;;2.66;73.58;101001.53;5089482;28;20052;-20
2021/12/16 04:11:20;;;;;;;45.25;22.45;;;;;;;2.60;74.13;101012.63;5089214;28;20059;-20
2021/12/16 04:13:54;;;;;;;40.97;20.35;;;;;;;2.44;74.77;101010.59;5088920;28;20039;-20
2021/12/16 04:16:22;;;;;;;42.20;20.88;;;;;;;2.74;74.14;101025.34;5089231;28;20028;-20
2021/12/16 04:18:47;;;;;;;39.33;19.90;;;;;;;2.15;75.56;101013.28;5088991;28;20524;-21
2021/12/16 04:21:13;;;;;;;35.90;18.23;;;;;;;2.15;76.12;101008.03;5089067;28;20040;-20
2021/12/16 04:23:38;;;;;;;36.67;18.73;;;;;;;2.28;75.60;101008.53;5070671;28;20028;-20
2021/12/16 04:26:04;;;;;;;34.83;18.17;;;;;;;2.25;75.95;101018.50;5088759;28;20116;-20
2021/12/16 04:28:30;;;;;;;33.63;17.77;;;;;;;2.57;74.21;101024.25;5088960;28;20048;-20
2021/12/16 04:30:56;;;;;;;43.70;23.70;;;;;;;2.69;73.34;101024.09;5088236;28;20024;-20
2021/12/16 04:33:22;;;;;;;56.40;25.55;;;;;;;2.66;73.57;101025.22;5088646;28;20486;-20
2021/12/16 04:35:47;;;;;;;47.67;23.10;;;;;;;2.38;74.32;101006.72;5088390;28;20035;-20
2021/12/16 04:38:13;;;;;;;45.25;21.98;;;;;;;2.61;73.67;101024.81;5088678;28;20038;-20
2021/12/16 04:40:39;;;;;;;45.38;23.90;;;;;;;2.68;73.33;101025.91;5070709;28;20086;-20
2021/12/16 04:43:05;;;;;;;45.20;22.88;;;;;;;2.48;73.98;101025.13;5088826;28;20040;-20
2021/12/16 04:45:32;;;;;;;47.55;23.27;;;;;;;2.63;73.91;101017.59;5088568;28;20040;-19
2021/12/16 04:47:57;;;;;;;51.03;22.38;;;;;;;2.52;73.58;101020.41;5088471;28;20031;-21
2021/12/16 04:50:23;;;;;;;46.22;22.83;;;;;;;2.31;74.32;101026.69;5088713;28;20498;-20
2021/12/16 04:52:48;;;;;;;74.00;35.38;;;;;;;2.17;75.19;101029.75;5088577;28;20043;-21
2021/12/16 04:55:14;;;;;;;50.17;25.15;;;;;;;2.28;74.13;101023.50;5088666;28;20107;-21
2021/12/16 04:57:40;;;;;;;52.28;26.70;;;;;;;1.93;75.60;101004.69;5070570;28;20032;-20
2021/12/16 05:00:07;;;;;;;51.15;25.25;;;;;;;2.15;75.35;101021.19;5088730;28;20413;-20
2021/12/16 05:02:34;;;;;;;58.35;28.17;;;;;;;2.12;74.81;101031.97;5088273;28;20034;-26
2021/12/16 05:04:59;;;;;;;72.07;33.08;;;;;;;2.05;75.64;101029.06;5088447;28;20073;-20
2021/12/16 05:07:25;;;;;;;79.55;38.60;;;;;;;2.12;75.27;101034.59;5088131;28;20032;-21
2021/12/16 05:10:08;;;;;;;81.25;38.97;;;;;;;2.17;75.43;101040.28;5088108;28;20028;-20
2021/12/16 05:12:38;;;;;;;84.72;32.97;;;;;;;2.07;75.34;101021.88;5088430;28;20066;-21
2021/12/16 05:15:06;;;;;;;54.25;26.73;;;;;;;2.05;75.96;101036.16;5088110;28;20035;-20
2021/12/16 05:17:38;;;;;;;48.08;24.25;;;;;;;1.41;77.66;101019.91;5087949;28;20024;-20
2021/12/16 05:20:08;;;;;;;45.40;21.95;;;;;;;1.73;76.98;101035.44;5088528;28;20036;-21
2021/12/16 05:25:39;;;;;;;49.85;24.02;;;;;;;1.81;76.61;101032.13;5088386;28;20043;-20
2021/12/16 05:28:04;;;;;;;46.97;23.60;;;;;;;1.70;76.63;101005.97;5087767;28;20060;-20
2021/12/16 05:30:30;;;;;;;52.83;25.95;;;;;;;2.18;75.55;101023.50;5088019;28;20152;-20
2021/12/16 05:32:56;;;;;;;55.67;29.52;;;;;;;1.87;76.10;101030.75;5088054;28;20465;-20
2021/12/16 05:35:22;;;;;;;77.60;41.30;;;;;;;1.68;76.00;101010.53;5087900;28;20038;-20
2021/12/16 05:37:47;;;;;;;75.00;39.13;;;;;;;1.51;77.45;101026.00;5069733;28;20025;-20
2021/12/16 05:40:24;;;;;;;69.75;37.38;;;;;;;1.55;77.46;101037.91;5088106;28;20039;-20
2021/12/16 05:42:51;;;;;;;96.68;49.50;;;;;;;1.64;77.03;101017.03;5089821;28;20028;-21
2021/12/16 05:45:16;;;;;;;113.70;55.77;;;;;;;1.59;76.96;101031.41;5092510;28;20036;-21
2021/12/16 05:47:42;;;;;;;99.10;50.15;;;;;;;1.86;77.22;101044.84;5091866;28;20101;-20
2021/12/16 05:50:08;;;;;;;132.80;68.50;;;;;;;1.75;76.96;101035.28;5092001;28;20043;-20
2021/12/16 05:52:33;;;;;;;125.75;69.57;;;;;;;1.52;77.17;101030.28;5091877;28;20031;-20
2021/12/16 05:55:00;;;;;;;96.60;51.80;;;;;;;1.70;76.91;101045.41;5073960;28;20039;-21
2021/12/16 05:57:25;;;;;;;82.20;44.40;;;;;;;1.66;76.79;101033.50;5073601;28;20025;-19
2021/12/16 05:59:51;;;;;;;79.20;42.58;;;;;;;1.93;75.87;101041.53;5091651;28;20032;-20
2021/12/16 06:02:16;;;;;;;86.32;43.45;;;;;;;2.09;75.86;101045.41;5073773;28;20043;-20
2021/12/16 06:04:42;;;;;;;86.25;42.67;;;;;;;2.25;75.22;101047.47;5091645;28;20085;-22
2021/12/16 06:07:07;;;;;;;93.63;46.75;;;;;;;2.25;75.03;101050.94;5091797;28;20482;-21
2021/12/16 06:09:33;;;;;;;92.50;48.97;;;;;;;2.36;74.97;101050.78;5091601;28;20047;-20
2021/12/16 06:11:59;;;;;;;87.57;48.75;;;;;;;2.31;74.02;101034.59;5091855;28;20020;-20
2021/12/16 06:15:18;;;;;;;85.28;47.45;;;;;;;2.50;73.62;101048.69;5091709;28;20039;-21
2021/12/16 06:26:25;;;;;;;35.38;18.17;;;;;;;2.05;74.81;101039.59;5091291;28;20035;-20
2021/12/16 06:28:20;;;;;;;32.70;16.48;;;;;;;1.61;76.55;101047.03;5091338;28;20070;-21
2021/12/16 06:30:46;;;;;;;33.80;16.98;;;;;;;1.76;76.21;101029.09;5091519;28;20035;-20
2021/12/16 06:33:14;;;;;;;39.25;22.52;;;;;;;2.09;75.43;101040.16;5091158;28;20032;-21
2021/12/16 06:35:39;;;;;;;37.53;20.30;;;;;;;2.06;74.69;101043.06;5073144;28;20034;-20
2021/12/16 06:38:05;;;;;;;33.25;17.80;;;;;;;1.55;75.69;101006.38;5091254;28;20040;-20
2021/12/16 06:40:31;;;;;;;33.78;17.55;;;;;;;1.54;77.25;101052.00;5091235;28;20064;-21
2021/12/16 06:42:58;;;;;;;35.15;19.20;;;;;;;1.38;78.45;101041.19;5090891;28;20552;-20
2021/12/16 06:45:28;;;;;;;41.85;20.40;;;;;;;1.27;78.45;101028.16;5090628;28;20435;-21
2021/12/16 06:48:02;;;;;;;43.28;21.23;;;;;;;1.14;79.30;101033.66;5090853;28;20036;-20
2021/12/16 06:50:42;;;;;;;34.70;18.38;;;;;;;1.71;78.53;101047.88;5091040;28;20024;-20
2021/12/16 06:53:09;;;;;;;40.33;20.63;;;;;;;1.86;76.72;101036.94;5091025;28;20043;-20
2021/12/16 06:55:44;;;;;;;41.75;19.48;;;;;;;2.00;75.56;101032.13;5090022;28;20112;-20
2021/12/16 06:58:21;;;;;;;37.35;18.40;;;;;;;2.24;74.84;101044.00;5074017;28;20119;-21
2021/12/16 07:00:49;;;;;;;36.17;17.92;;;;;;;2.57;73.93;101049.75;5072357;28;20085;-21
2021/12/16 07:03:19;;;;;;;37.00;19.92;;;;;;;2.61;73.60;101041.44;5072989;28;20035;-20
2021/12/16 07:05:46;;;;;;;33.63;17.90;;;;;;;2.66;72.42;101059.47;5090547;28;20294;-21
2021/12/16 07:08:15;;;;;;;45.17;23.50;;;;;;;1.92;75.94;101053.03;5090581;28;20032;-21
2021/12/16 07:10:45;;;;;;;62.08;34.13;;;;;;;2.11;75.92;101038.22;5090924;28;20059;-21
2021/12/16 07:13:17;;;;;;;62.10;35.83;;;;;;;1.97;76.42;101058.69;5072809;28;20028;-21
2021/12/16 07:15:42;;;;;;;87.10;44.25;;;;;;;2.50;74.99;101064.47;5090090;28;20089;-20
2021/12/16 07:18:08;;;;;;;75.60;37.58;;;;;;;2.77;74.24;101056.63;5090375;28;20032;-21
2021/12/16 07:20:34;;;;;;;69.97;37.25;;;;;;;2.88;73.68;101041.63;5090546;28;20028;-20
2021/12/16 07:23:00;;;;;;;60.00;33.95;;;;;;;3.16;72.62;101032.75;5090121;28;20032;-20
2021/12/16 07:25:26;;;;;;;85.60;38.78;;;;;;;3.33;73.45;101051.41;5089882;28;20038;-20
2021/12/16 07:27:51;;;;;;;43.35;22.42;;;;;;;3.42;72.89;101045.25;5089889;28;20052;-22
2021/12/16 07:30:17;;;;;;;36.63;20.10;;;;;;;3.51;71.80;101039.06;5055569;28;20028;-20
2021/12/16 07:32:43;;;;;;;36.00;20.95;;;;;;;3.02;73.69;101025.34;5090356;28;20044;-21
2021/12/16 07:35:11;;;;;;;39.78;21.10;;;;;;;3.19;73.99;101045.66;5089787;28;20032;-20
2021/12/16 07:37:37;;;;;;;37.88;18.98;;;;;;;3.28;75.25;101053.66;5090023;28;20036;-21
2021/12/16 07:40:07;;;;;;;34.25;20.10;;;;;;;3.48;75.68;101047.31;5071544;28;20043;-21
2021/12/16 07:42:43;;;;;;;50.72;29.67;;;;;;;3.69;73.07;101012.72;5089991;28;20035;-21
2021/12/16 07:45:10;;;;;;;125.22;60.65;;;;;;;4.12;72.76;101052.53;5090059;28;20105;-21
2021/12/16 07:47:35;;;;;;;34.65;17.85;;;;;;;3.73;70.34;101042.28;5089823;28;20536;-21
2021/12/16 07:50:01;;;;;;;27.33;14.75;;;;;;;3.42;70.22;101029.44;5089589;28;20032;-20
2021/12/16 07:52:26;;;;;;;30.35;14.95;;;;;;;3.36;70.46;101036.13;5089968;28;20477;-20
2021/12/16 07:54:51;;;;;;;47.67;24.75;;;;;;;3.41;72.42;101048.84;5089668;28;20040;-20
2021/12/16 07:57:17;;;;;;;51.50;27.55;;;;;;;3.57;71.10;101022.66;5089568;28;20085;-21
2021/12/16 07:59:42;;;;;;;46.13;23.45;;;;;;;3.97;70.82;101049.59;5089141;28;20073;-20
2021/12/16 08:02:11;;;;;;;31.20;16.10;;;;;;;4.07;69.44;101049.53;5089652;28;20085;-21
2021/12/16 08:04:42;;;;;;;31.63;16.48;;;;;;;4.34;69.02;101045.94;5089260;28;20055;-21
2021/12/16 08:07:08;;;;;;;37.28;20.17;;;;;;;4.03;68.87;101038.44;5088173;28;20093;-21
2021/12/16 08:09:40;;;;;;;29.25;16.67;;;;;;;4.27;69.11;101050.16;5089077;28;20031;-20
2021/12/16 08:12:06;;;;;;;30.30;16.13;;;;;;;4.36;69.28;101050.06;5089061;28;20036;-20
2021/12/16 08:14:31;;;;;;;35.60;17.70;;;;;;;4.19;69.33;101021.91;5089122;28;20020;-20
2021/12/16 08:16:57;;;;;;;28.85;16.48;;;;;;;3.96;71.13;101038.22;5089110;28;20039;-20
2021/12/16 08:19:22;;;;;;;31.60;17.33;;;;;;;4.27;70.50;101035.16;5089214;28;20038;-21
2021/12/16 08:21:48;;;;;;;30.75;15.77;;;;;;;4.20;70.20;101031.47;5089170;28;20040;-20
2021/12/16 08:24:16;;;;;;;31.45;17.40;;;;;;;4.17;71.74;101045.81;5086114;28;20396;-20
2021/12/16 08:26:41;;;;;;;29.88;16.58;;;;;;;4.51;70.33;101057.44;5072564;28;20029;-20
2021/12/16 08:29:07;;;;;;;212.88;148.82;;;;;;;4.58;70.68;101056.66;5068303;28;20060;-21
2021/12/16 08:31:33;;;;;;;164.18;133.52;;;;;;;4.45;69.65;101037.75;5068528;28;20032;-20
2021/12/16 08:33:59;;;;;;;104.05;89.80;;;;;;;4.50;69.66;101045.22;5068813;28;20041;-21
2021/12/16 08:36:25;;;;;;;120.88;106.53;;;;;;;4.17;72.27;101066.09;5068778;28;20139;-20
2021/12/16 08:38:50;;;;;;;107.03;96.20;;;;;;;4.35;71.67;101060.78;5068629;28;20032;-20
2021/12/16 08:41:24;;;;;;;87.28;78.38;;;;;;;4.09;72.38;101063.41;5068639;28;20446;-20
2021/12/16 08:43:50;;;;;;;130.15;105.57;;;;;;;3.95;72.40;101043.66;5068686;28;20032;-20
2021/12/16 08:46:17;;;;;;;242.45;217.23;;;;;;;4.45;71.26;101058.06;5068215;28;20047;-21
2021/12/16 08:48:43;;;;;;;71.57;42.38;;;;;;;4.19;71.26;101043.84;5068562;28;20028;-21
2021/12/16 08:51:08;;;;;;;96.93;53.42;;;;;;;4.62;70.30;101065.94;5068537;28;20031;-21
2021/12/16 08:53:34;;;;;;;328.35;120.18;;;;;;;4.15;72.18;101052.22;5068271;28;20033;-20
2021/12/16 08:55:59;;;;;;;221.73;78.97;;;;;;;4.37;72.22;101049.09;5068105;28;20025;-20
2021/12/16 08:58:25;;;;;;;157.43;66.18;;;;;;;4.72;71.16;101068.47;5068385;28;20029;-20
2021/12/16 09:00:55;;;;;;;79.47;37.58;;;;;;;4.43;71.80;101059.06;5067930;28;20032;-20
2021/12/16 09:03:21;;;;;;;48.42;25.73;;;;;;;4.14;71.94;101040.81;5068262;28;20039;-20
2021/12/16 09:05:46;;;;;;;120.85;81.65;;;;;;;4.50;72.11;101050.50;5067896;28;20024;-20
2021/12/16 09:08:12;;;;;;;62.08;44.75;;;;;;;4.68;72.47;101056.56;5068354;28;20029;-20
2021/12/16 09:10:38;;;;;;;41.70;23.95;;;;;;;4.69;71.85;101050.28;5068034;28;20028;-20
2021/12/16 09:13:09;;;;;;;38.88;21.02;;;;;;;4.99;70.59;101056.06;5068078;28;20067;-20
2021/12/16 09:15:45;;;;;;;79.40;46.97;;;;;;;4.76;73.17;101051.34;5067592;28;20377;-20
2021/12/16 09:18:10;;;;;;;65.32;31.67;;;;;;;5.00;70.84;101057.72;5067916;28;20021;-20
2021/12/16 09:20:37;;;;;;;56.42;29.15;;;;;;;5.03;71.28;101049.47;5067954;28;20032;-20
2021/12/16 09:23:04;;;;;;;58.85;31.52;;;;;;;4.97;71.05;101052.75;5068246;28;20047;-20
2021/12/16 09:25:29;;;;;;;69.32;42.38;;;;;;;5.02;71.50;101050.47;5067814;28;20028;-21
2021/12/16 09:27:55;;;;;;;40.30;24.20;;;;;;;5.14;71.12;101043.91;5066118;28;20056;-21
2021/12/16 09:30:30;;;;;;;32.40;19.48;;;;;;;4.98;70.98;101039.38;5067735;28;20059;-20
2021/12/16 09:32:59;;;;;;;39.17;21.07;;;;;;;5.09;71.83;101046.22;5067741;28;20463;-20
2021/12/16 09:35:24;;;;;;;37.30;20.35;;;;;;;5.56;70.41;101048.34;5067431;28;20262;-21
2021/12/16 09:37:51;;;;;;;33.67;20.58;;;;;;;5.66;70.41;101042.06;5067848;28;20034;-20
2021/12/16 09:40:21;;;;;;;175.35;97.05;;;;;;;5.58;69.86;101041.06;5067858;28;20035;-20
2021/12/16 09:42:47;;;;;;;155.45;104.80;;;;;;;5.56;70.45;101021.06;5067664;28;20409;-20
2021/12/16 09:45:13;;;;;;;512.90;298.33;;;;;;;5.92;69.55;101026.88;5067803;28;20411;-20
2021/12/16 09:47:39;;;;;;;168.68;97.68;;;;;;;6.00;68.99;101029.56;5049575;28;20025;-20
2021/12/16 09:50:06;;;;;;;139.95;98.97;;;;;;;5.95;68.61;101021.31;5067718;28;20046;-20
2021/12/16 09:52:31;;;;;;;51.22;40.22;;;;;;;6.34;69.32;101014.50;5067995;28;20107;-20
2021/12/16 09:54:57;;;;;;;28.77;16.48;;;;;;;6.37;68.85;101007.03;5067905;28;20158;-20
2021/12/16 09:57:22;;;;;;;30.45;20.45;;;;;;;6.60;67.45;101001.03;5067543;28;20035;-21
2021/12/16 09:59:48;;;;;;;33.17;20.55;;;;;;;6.78;66.69;101006.09;5067597;28;20033;-20
2021/12/16 10:02:16;;;;;;;36.50;19.48;;;;;;;6.72;67.03;100994.38;5067418;28;20024;-20
2021/12/16 10:04:41;;;;;;;37.17;19.63;;;;;;;6.76;67.73;100992.19;5067693;28;20138;-19
2021/12/16 10:07:11;;;;;;;30.40;18.02;;;;;;;6.86;66.75;101002.59;5067449;28;20037;-20
2021/12/16 10:09:37;;;;;;;33.80;18.67;;;;;;;6.69;67.76;100991.22;5067345;28;20093;-20
2021/12/16 10:12:11;;;;;;;36.45;17.83;;;;;;;6.71;67.58;100979.44;5067841;28;20036;-20
2021/12/16 10:19:47;;;;;;;34.22;18.25;;;;;;;7.34;67.45;100990.13;5049551;28;20132;-21
2021/12/16 10:22:18;;;;;;;36.20;18.88;;;;;;;7.33;64.68;100977.84;5067529;28;20396;-20
2021/12/16 10:24:44;;;;;;;27.30;15.73;;;;;;;7.10;64.31;100941.50;5067586;28;20396;-20
2021/12/16 10:27:10;;;;;;;27.13;15.95;;;;;;;7.54;64.39;100970.09;5067336;28;20111;-20
2021/12/16 10:29:41;;;;;;;29.77;16.90;;;;;;;7.27;63.93;100967.91;5068241;28;20064;-21
2021/12/16 10:32:27;;;;;;;25.83;15.25;;;;;;;7.55;64.35;100960.28;5070943;28;20032;-20
2021/12/16 10:34:57;;;;;;;29.58;16.27;;;;;;;7.75;63.75;100944.72;5056025;28;20568;-20
2021/12/16 10:37:35;;;;;;;26.70;15.05;;;;;;;7.60;62.08;100964.06;5070977;28;20617;-20
2021/12/16 10:40:19;;;;;;;;;;;;;;;7.39;62.44;100959.38;5071264;28;20067;-21
2021/12/16 10:42:45;;;;;;;29.27;17.70;;;;;;;7.26;63.04;100934.44;5070808;28;20007;-19
2021/12/16 10:45:35;;;;;;;36.97;18.05;;;;;;;7.18;64.48;100949.41;5070716;28;20115;-21
2021/12/16 10:48:16;;;;;;;21.42;13.10;;;;;;;6.61;64.32;100949.66;5070505;28;20412;-20
2021/12/16 10:50:50;;;;;;;27.65;12.70;;;;;;;6.70;61.51;100940.72;5070684;28;20060;-20
2021/12/16 10:53:15;;;;;;;19.08;9.90;;;;;;;6.71;62.25;100931.75;5070492;28;20025;-20
2021/12/16 10:56:02;;;;;;;20.35;9.65;;;;;;;6.58;63.29;100944.72;5052480;28;20090;-21
2021/12/16 10:58:51;;;;;;;18.40;10.35;;;;;;;6.89;61.86;100930.69;5070547;28;20115;-20
2021/12/16 11:01:32;;;;;;;17.25;9.85;;;;;;;7.19;62.01;100929.84;5070207;28;20649;-20
2021/12/16 11:03:57;;;;;;;15.15;9.10;;;;;;;7.03;61.24;100928.09;5070157;28;20388;-20
2021/12/16 11:06:34;;;;;;;17.00;10.25;;;;;;;6.99;61.06;100918.84;5070410;28;20036;-20
2021/12/16 11:09:21;;;;;;;22.60;12.73;;;;;;;7.20;60.93;100936.78;5070237;28;20033;-21
2021/12/16 11:11:47;;;;;;;15.43;9.47;;;;;;;7.08;61.00;100914.31;5070115;28;20157;-21
2021/12/16 11:14:12;;;;;;;20.55;12.50;;;;;;;7.46;60.74;100925.03;5070485;28;20040;-20
2021/12/16 11:16:38;;;;;;;18.08;11.27;;;;;;;7.47;60.50;100910.72;5070235;28;20491;-20
2021/12/16 11:19:03;;;;;;;16.58;9.52;;;;;;;7.28;62.02;100924.50;5070078;28;20028;-20
2021/12/16 11:21:40;;;;;;;17.50;9.70;;;;;;;7.48;60.83;100928.31;5069782;28;20415;-20
2021/12/16 11:24:24;;;;;;;15.13;8.60;;;;;;;7.20;59.13;100912.91;5070005;28;20035;-20
2021/12/16 11:26:49;;;;;;;24.85;19.10;;;;;;;7.06;60.72;100908.38;5069549;28;20066;-20
2021/12/16 11:29:15;;;;;;;21.13;13.30;;;;;;;7.00;59.28;100903.75;5069836;28;20121;-20
2021/12/16 11:31:43;;;;;;;68.22;45.30;;;;;;;7.18;61.22;100908.78;5069678;28;20025;-20
2021/12/16 11:34:10;;;;;;;23.75;16.15;;;;;;;7.36;60.58;100913.81;5052330;28;20024;-20
2021/12/16 11:36:44;;;;;;;20.35;13.40;;;;;;;7.60;59.94;100904.81;5069669;28;20130;-21
2021/12/16 11:39:10;;;;;;;15.10;9.63;;;;;;;7.64;59.43;100917.56;5069595;28;20395;-20
2021/12/16 11:41:37;;;;;;;14.48;8.50;;;;;;;7.50;60.06;100914.84;5069179;28;20036;-20
2021/12/16 11:44:26;;;;;;;15.25;9.57;;;;;;;7.73;59.29;100898.91;5069558;28;20040;-20
2021/12/16 11:46:54;;;;;;;14.65;8.45;;;;;;;7.89;59.37;100913.88;5069484;28;20040;-20
2021/12/16 11:49:39;;;;;;;15.70;9.18;;;;;;;7.63;59.04;100907.94;5069661;28;20032;-20
2021/12/16 11:52:14;;;;;;;15.43;10.40;;;;;;;7.91;59.97;100912.69;5069849;28;20563;-20
2021/12/16 11:54:57;;;;;;;15.63;9.30;;;;;;;7.98;59.28;100902.97;5069550;28;20032;-20
2021/12/16 11:57:26;;;;;;;14.40;8.75;;;;;;;8.07;59.07;100906.41;5069090;28;20028;-20
2021/12/16 11:59:55;;;;;;;;;;;;;;;8.07;58.99;100905.56;5070110;28;20361;-20
2021/12/16 12:02:26;;;;;;;15.20;9.23;;;;;;;7.85;60.19;100908.09;5069296;28;19912;-20
2021/12/16 12:04:53;;;;;;;16.83;10.27;;;;;;;7.99;58.93;100904.66;5069222;28;20103;-20
2021/12/16 12:07:18;;;;;;;22.73;11.35;;;;;;;7.86;57.46;100893.81;5069114;28;20036;-20
2021/12/16 12:09:49;;;;;;;17.27;10.35;;;;;;;7.68;58.20;100882.69;5068939;28;20028;-20
2021/12/16 12:12:15;;;;;;;15.77;9.02;;;;;;;7.68;57.65;100895.97;5069155;28;20059;-20
2021/12/16 12:14:41;;;;;;;39.47;20.27;;;;;;;8.01;57.24;100897.31;5050942;28;20404;-20
2021/12/16 12:17:16;;;;;;;25.02;13.98;;;;;;;8.16;57.54;100893.84;5068976;28;20036;-20
2021/12/16 12:19:44;;;;;;;22.83;13.30;;;;;;;8.41;56.37;100897.09;5068979;28;20391;-20
2021/12/16 12:22:09;;;;;;;31.00;17.33;;;;;;;8.60;55.68;100901.00;5068994;28;20115;-20
2021/12/16 12:24:37;;;;;;;63.78;34.25;;;;;;;9.01;55.55;100903.13;5068909;28;20040;-20
2021/12/16 12:27:14;;;;;;;31.43;18.40;;;;;;;9.13;56.70;100901.63;5068610;28;20040;-20
2021/12/16 12:29:59;;;;;;;151.85;81.47;;;;;;;9.32;55.96;100902.84;5068089;28;20084;-19
2021/12/16 12:32:27;;;;;;;64.22;38.20;;;;;;;9.02;58.39;100879.00;5068813;28;20029;-20
2021/12/16 12:34:55;;;;;;;56.58;35.03;;;;;;;9.61;58.97;100915.19;5068694;28;20033;-21
2021/12/16 12:37:21;;;;;;;;;;;;;;;9.20;59.92;100902.53;5068946;28;20032;-20
2021/12/16 12:39:52;;;;;;;178.48;107.18;;;;;;;9.03;59.61;100887.78;5068175;28;19927;-20
2021/12/16 12:42:18;;;;;;;73.75;39.28;;;;;;;8.99;60.43;100882.03;5068495;28;20044;-20
2021/12/16 12:44:43;;;;;;;140.85;98.03;;;;;;;9.01;61.70;100903.97;5068279;28;20060;-20
2021/12/16 12:47:14;;;;;;;60.63;47.20;;;;;;;9.31;61.28;100889.72;5068186;28;20461;-20
2021/12/16 12:49:40;;;;;;;48.83;40.33;;;;;;;9.53;60.10;100910.00;5068139;28;20031;-20
2021/12/16 12:52:19;;;;;;;35.65;31.48;;;;;;;9.45;59.18;100889.66;5067580;28;20056;-20
2021/12/16 12:54:51;;;;;;;28.30;21.55;;;;;;;9.02;59.74;100899.47;5068214;28;20129;-20
2021/12/16 12:57:28;;;;;;;25.77;17.42;;;;;;;8.93;59.92;100914.72;5050328;28;20569;-21
2021/12/16 12:59:53;;;;;;;24.95;19.63;;;;;;;9.27;59.89;100897.25;5067868;28;20033;-20
2021/12/16 13:02:35;;;;;;;23.85;14.20;;;;;;;9.13;60.18;100895.47;5068172;28;20491;-20
2021/12/16 13:05:24;;;;;;;25.65;15.25;;;;;;;8.72;59.94;100866.78;5068209;28;20033;-20
2021/12/16 13:08:00;;;;;;;35.42;20.63;;;;;;;8.85;61.10;100889.06;5067841;28;20040;-21
2021/12/16 13:10:31;;;;;;;33.28;18.98;;;;;;;8.79;61.48;100884.47;5068051;28;20082;-20
2021/12/16 13:16:16;;;;;;;30.30;16.63;;;;;;;8.64;61.67;100881.00;5067925;28;20024;-21
2021/12/16 13:27:21;;;;;;;49.17;39.25;;;;;;;8.55;62.25;100898.09;5067649;28;20028;-20
2021/12/16 13:30:38;;;;;;;20.77;13.73;;;;;;;8.71;61.09;100892.56;5067907;28;20055;-20
2021/12/16 13:32:46;;;;;;;19.73;12.30;;;;;;;8.65;60.72;100890.66;5045009;28;20507;-20
2021/12/16 13:35:33;;;;;;;18.70;11.88;;;;;;;8.64;60.28;100876.53;5067600;28;20033;-20
2021/12/16 13:37:58;;;;;;;16.95;9.95;;;;;;;8.41;60.21;100884.63;5067896;28;20035;-21
2021/12/16 13:40:29;;;;;;;20.65;12.02;;;;;;;8.49;60.45;100877.56;5067719;28;20028;-19
2021/12/16 13:42:58;;;;;;;15.80;9.90;;;;;;;8.23;59.92;100900.06;5067957;28;20768;-20
2021/12/16 13:45:27;;;;;;;23.80;11.35;;;;;;;8.00;59.98;100900.97;5049515;28;20035;-20
2021/12/16 13:48:32;;;;;;;38.83;17.15;;;;;;;8.08;58.30;100886.78;5067659;28;20076;-20
2021/12/16 14:04:55;;;;;;;25.65;11.68;;;;;;;7.68;58.30;100880.03;5069781;28;20060;-20
2021/12/16 14:07:58;;;;;;;14.05;8.95;;;;;;;7.24;58.32;100889.53;5071152;28;20028;-20
2021/12/16 14:10:43;;;;;;;16.65;8.50;;;;;;;7.32;58.56;100891.28;5057630;28;20024;-20
2021/12/16 14:16:12;;;;;;;20.48;11.00;;;;;;;7.28;58.08;100887.34;5071236;28;20033;-20
2021/12/16 14:38:58;;;;;;;12.95;8.68;;;;;;;6.38;60.48;100878.88;5070996;28;20377;-21
2021/12/16 14:45:14;;;;;;;12.30;7.15;;;;;;;6.56;60.23;100864.53;5071073;28;20056;-20
2021/12/16 14:49:46;;;;;;;9.45;5.57;;;;;;;6.34;61.03;100892.63;5070520;28;20028;-20
2021/12/16 14:52:16;;;;;;;15.43;9.32;;;;;;;6.39;60.65;100875.22;5070503;28;20032;-20
2021/12/16 14:54:54;;;;;;;14.63;9.30;;;;;;;6.27;60.88;100876.56;5070230;28;20028;-20
2021/12/16 14:57:21;;;;;;;;;;;;;;;6.15;60.21;100894.69;5070996;28;20032;-20